sensor_id;sensor_type;location;lat;lon;timestamp;P1;durP1;ratioP1;P2;durP2;ratioP2
17340;SDS011;8788;49.930;8.660;2023-04-28T00:01:43;4.35;;;2.58;;
17340;SDS011;8788;49.930;8.660;2023-04-28T00:04:10;4.65;;;2.60;;
17340;SDS011;8788;49.930;8.660;2023-04-28T00:06:38;2.55;;;2.17;;
17340;SDS011;8788;49.930;8.660;2023-04-28T00:09:05;2.25;;;2.05;;
17340;SDS011;8788;49.930;8.660;2023-04-28T00:11:36;3.00;;;2.30;;
17340;SDS011;8788;49.930;8.660;2023-04-28T00:14:03;2.78;;;2.00;;
17340;SDS011;8788;49.930;8.660;2023-04-28T00:16:31;3.13;;;2.00;;
17340;SDS011;8788;49.930;8.660;2023-04-28T00:18:58;4.28;;;2.50;;
17340;SDS011;8788;49.930;8.660;2023-04-28T00:21:25;2.83;;;2.53;;
17340;SDS011;8788;49.930;8.660;2023-04-28T00:23:52;7.97;;;2.38;;
17340;SDS011;8788;49.930;8.660;2023-04-28T00:26:20;4.05;;;2.95;;
17340;SDS011;8788;49.930;8.660;2023-04-28T00:28:48;3.53;;;2.50;;
17340;SDS011;8788;49.930;8.660;2023-04-28T00:31:15;4.30;;;2.33;;
17340;SDS011;8788;49.930;8.660;2023-04-28T00:33:43;7.15;;;3.65;;
17340;SDS011;8788;49.930;8.660;2023-04-28T00:36:10;4.13;;;2.53;;
17340;SDS011;8788;49.930;8.660;2023-04-28T00:38:37;2.75;;;2.28;;
17340;SDS011;8788;49.930;8.660;2023-04-28T00:41:04;3.53;;;2.17;;
17340;SDS011;8788;49.930;8.660;2023-04-28T00:43:42;6.55;;;2.75;;
17340;SDS011;8788;49.930;8.660;2023-04-28T00:46:12;3.67;;;2.42;;
17340;SDS011;8788;49.930;8.660;2023-04-28T00:48:48;8.88;;;3.10;;
17340;SDS011;8788;49.930;8.660;2023-04-28T00:51:16;4.70;;;2.63;;
17340;SDS011;8788;49.930;8.660;2023-04-28T00:53:43;4.60;;;2.80;;
17340;SDS011;8788;49.930;8.660;2023-04-28T00:56:11;4.03;;;2.15;;
17340;SDS011;8788;49.930;8.660;2023-04-28T00:58:38;3.72;;;2.80;;
17340;SDS011;8788;49.930;8.660;2023-04-28T01:01:06;4.10;;;2.38;;
17340;SDS011;8788;49.930;8.660;2023-04-28T01:03:37;5.50;;;2.33;;
17340;SDS011;8788;49.930;8.660;2023-04-28T01:06:06;5.78;;;2.58;;
17340;SDS011;8788;49.930;8.660;2023-04-28T01:08:35;3.88;;;2.47;;
17340;SDS011;8788;49.930;8.660;2023-04-28T01:11:07;7.82;;;2.47;;
17340;SDS011;8788;49.930;8.660;2023-04-28T01:14:01;3.30;;;2.95;;
17340;SDS011;8788;49.930;8.660;2023-04-28T01:16:32;4.47;;;2.47;;
17340;SDS011;8788;49.930;8.660;2023-04-28T01:19:03;2.95;;;2.63;;
17340;SDS011;8788;49.930;8.660;2023-04-28T01:21:35;2.88;;;2.55;;
17340;SDS011;8788;49.930;8.660;2023-04-28T01:24:33;3.05;;;2.40;;
17340;SDS011;8788;49.930;8.660;2023-04-28T01:27:04;3.95;;;2.80;;
17340;SDS011;8788;49.930;8.660;2023-04-28T01:29:31;3.17;;;2.40;;
17340;SDS011;8788;49.930;8.660;2023-04-28T01:31:58;2.55;;;2.35;;
17340;SDS011;8788;49.930;8.660;2023-04-28T01:34:25;3.53;;;2.17;;
17340;SDS011;8788;49.930;8.660;2023-04-28T01:36:52;3.40;;;2.35;;
17340;SDS011;8788;49.930;8.660;2023-04-28T01:39:19;2.47;;;2.22;;
17340;SDS011;8788;49.930;8.660;2023-04-28T01:41:47;4.05;;;2.45;;
17340;SDS011;8788;49.930;8.660;2023-04-28T01:44:14;3.00;;;2.70;;
17340;SDS011;8788;49.930;8.660;2023-04-28T01:46:41;5.10;;;2.25;;
17340;SDS011;8788;49.930;8.660;2023-04-28T01:49:08;6.20;;;2.40;;
17340;SDS011;8788;49.930;8.660;2023-04-28T01:51:36;3.20;;;2.30;;
17340;SDS011;8788;49.930;8.660;2023-04-28T01:54:03;4.90;;;2.45;;
17340;SDS011;8788;49.930;8.660;2023-04-28T01:56:30;3.97;;;2.38;;
17340;SDS011;8788;49.930;8.660;2023-04-28T01:59:00;2.75;;;2.45;;
17340;SDS011;8788;49.930;8.660;2023-04-28T02:01:30;2.72;;;2.33;;
17340;SDS011;8788;49.930;8.660;2023-04-28T02:06:47;3.75;;;2.40;;
17340;SDS011;8788;49.930;8.660;2023-04-28T02:09:14;3.25;;;2.38;;
17340;SDS011;8788;49.930;8.660;2023-04-28T02:11:41;4.05;;;2.40;;
17340;SDS011;8788;49.930;8.660;2023-04-28T02:14:10;5.15;;;3.13;;
17340;SDS011;8788;49.930;8.660;2023-04-28T02:16:37;5.75;;;3.00;;
17340;SDS011;8788;49.930;8.660;2023-04-28T02:19:04;3.38;;;3.00;;
17340;SDS011;8788;49.930;8.660;2023-04-28T02:21:31;4.75;;;2.75;;
17340;SDS011;8788;49.930;8.660;2023-04-28T02:23:58;2.65;;;2.30;;
17340;SDS011;8788;49.930;8.660;2023-04-28T02:26:25;2.60;;;2.40;;
17340;SDS011;8788;49.930;8.660;2023-04-28T02:28:52;4.13;;;2.85;;
17340;SDS011;8788;49.930;8.660;2023-04-28T02:31:21;4.38;;;3.00;;
17340;SDS011;8788;49.930;8.660;2023-04-28T02:33:48;5.22;;;2.90;;
17340;SDS011;8788;49.930;8.660;2023-04-28T02:36:15;4.35;;;2.70;;
17340;SDS011;8788;49.930;8.660;2023-04-28T02:38:42;3.05;;;2.72;;
17340;SDS011;8788;49.930;8.660;2023-04-28T02:41:10;3.63;;;2.72;;
17340;SDS011;8788;49.930;8.660;2023-04-28T02:43:38;3.50;;;2.67;;
17340;SDS011;8788;49.930;8.660;2023-04-28T02:46:05;4.35;;;2.97;;
17340;SDS011;8788;49.930;8.660;2023-04-28T02:48:34;5.15;;;3.22;;
17340;SDS011;8788;49.930;8.660;2023-04-28T02:51:01;2.83;;;2.50;;
17340;SDS011;8788;49.930;8.660;2023-04-28T02:53:29;5.35;;;3.00;;
17340;SDS011;8788;49.930;8.660;2023-04-28T02:55:56;3.35;;;2.60;;
17340;SDS011;8788;49.930;8.660;2023-04-28T02:58:26;4.68;;;2.42;;
17340;SDS011;8788;49.930;8.660;2023-04-28T03:00:53;3.33;;;3.00;;
17340;SDS011;8788;49.930;8.660;2023-04-28T03:03:20;3.72;;;2.83;;
17340;SDS011;8788;49.930;8.660;2023-04-28T03:05:49;6.20;;;2.60;;
17340;SDS011;8788;49.930;8.660;2023-04-28T03:08:16;6.75;;;3.25;;
17340;SDS011;8788;49.930;8.660;2023-04-28T03:10:45;2.72;;;2.53;;
17340;SDS011;8788;49.930;8.660;2023-04-28T03:13:12;5.43;;;2.70;;
17340;SDS011;8788;49.930;8.660;2023-04-28T03:15:40;4.05;;;2.90;;
17340;SDS011;8788;49.930;8.660;2023-04-28T03:18:08;8.02;;;3.40;;
17340;SDS011;8788;49.930;8.660;2023-04-28T03:20:35;3.45;;;2.85;;
17340;SDS011;8788;49.930;8.660;2023-04-28T03:23:03;3.92;;;3.20;;
17340;SDS011;8788;49.930;8.660;2023-04-28T03:25:31;3.83;;;3.40;;
17340;SDS011;8788;49.930;8.660;2023-04-28T03:27:59;5.50;;;3.28;;
17340;SDS011;8788;49.930;8.660;2023-04-28T03:30:27;3.92;;;3.22;;
17340;SDS011;8788;49.930;8.660;2023-04-28T03:32:55;3.65;;;3.17;;
17340;SDS011;8788;49.930;8.660;2023-04-28T03:35:22;6.15;;;3.50;;
17340;SDS011;8788;49.930;8.660;2023-04-28T03:37:50;7.00;;;3.08;;
17340;SDS011;8788;49.930;8.660;2023-04-28T03:40:18;4.63;;;3.40;;
17340;SDS011;8788;49.930;8.660;2023-04-28T03:43:21;3.53;;;3.22;;
17340;SDS011;8788;49.930;8.660;2023-04-28T03:46:08;7.60;;;3.28;;
17340;SDS011;8788;49.930;8.660;2023-04-28T03:48:35;7.05;;;3.15;;
17340;SDS011;8788;49.930;8.660;2023-04-28T03:51:03;5.07;;;3.30;;
17340;SDS011;8788;49.930;8.660;2023-04-28T03:53:30;6.13;;;3.72;;
17340;SDS011;8788;49.930;8.660;2023-04-28T03:55:58;4.88;;;3.40;;
17340;SDS011;8788;49.930;8.660;2023-04-28T03:58:26;5.50;;;3.42;;
17340;SDS011;8788;49.930;8.660;2023-04-28T04:00:53;4.60;;;3.47;;
17340;SDS011;8788;49.930;8.660;2023-04-28T04:03:20;3.88;;;3.53;;
17340;SDS011;8788;49.930;8.660;2023-04-28T04:05:50;6.30;;;3.92;;
17340;SDS011;8788;49.930;8.660;2023-04-28T04:08:17;5.50;;;3.55;;
17340;SDS011;8788;49.930;8.660;2023-04-28T04:10:45;4.50;;;3.22;;
17340;SDS011;8788;49.930;8.660;2023-04-28T04:13:14;4.70;;;3.25;;
17340;SDS011;8788;49.930;8.660;2023-04-28T04:15:42;5.88;;;3.70;;
17340;SDS011;8788;49.930;8.660;2023-04-28T04:18:09;5.60;;;3.60;;
17340;SDS011;8788;49.930;8.660;2023-04-28T04:20:55;6.70;;;3.88;;
17340;SDS011;8788;49.930;8.660;2023-04-28T04:23:22;5.07;;;3.15;;
17340;SDS011;8788;49.930;8.660;2023-04-28T04:25:49;7.30;;;3.53;;
17340;SDS011;8788;49.930;8.660;2023-04-28T04:28:18;5.82;;;3.67;;
17340;SDS011;8788;49.930;8.660;2023-04-28T04:30:45;4.57;;;3.63;;
17340;SDS011;8788;49.930;8.660;2023-04-28T04:33:13;3.85;;;3.30;;
17340;SDS011;8788;49.930;8.660;2023-04-28T04:35:40;4.53;;;3.47;;
17340;SDS011;8788;49.930;8.660;2023-04-28T04:38:08;4.78;;;3.40;;
17340;SDS011;8788;49.930;8.660;2023-04-28T04:40:35;5.88;;;3.30;;
17340;SDS011;8788;49.930;8.660;2023-04-28T04:43:02;6.18;;;4.13;;
17340;SDS011;8788;49.930;8.660;2023-04-28T04:45:37;4.22;;;3.38;;
17340;SDS011;8788;49.930;8.660;2023-04-28T04:48:05;3.90;;;3.13;;
17340;SDS011;8788;49.930;8.660;2023-04-28T04:50:32;5.72;;;3.83;;
17340;SDS011;8788;49.930;8.660;2023-04-28T04:52:59;5.50;;;3.70;;
17340;SDS011;8788;49.930;8.660;2023-04-28T04:55:26;5.97;;;3.78;;
17340;SDS011;8788;49.930;8.660;2023-04-28T04:57:53;6.78;;;4.25;;
17340;SDS011;8788;49.930;8.660;2023-04-28T05:00:30;4.28;;;3.88;;
17340;SDS011;8788;49.930;8.660;2023-04-28T05:03:00;4.63;;;3.97;;
17340;SDS011;8788;49.930;8.660;2023-04-28T05:05:28;7.07;;;3.53;;
17340;SDS011;8788;49.930;8.660;2023-04-28T05:08:05;5.90;;;3.53;;
17340;SDS011;8788;49.930;8.660;2023-04-28T05:10:33;4.13;;;3.50;;
17340;SDS011;8788;49.930;8.660;2023-04-28T05:13:01;4.32;;;3.60;;
17340;SDS011;8788;49.930;8.660;2023-04-28T05:15:29;7.72;;;3.70;;
17340;SDS011;8788;49.930;8.660;2023-04-28T05:18:20;9.38;;;3.70;;
17340;SDS011;8788;49.930;8.660;2023-04-28T05:20:47;5.78;;;3.70;;
17340;SDS011;8788;49.930;8.660;2023-04-28T05:23:16;4.72;;;3.58;;
17340;SDS011;8788;49.930;8.660;2023-04-28T05:25:43;4.78;;;3.65;;
17340;SDS011;8788;49.930;8.660;2023-04-28T05:28:11;8.70;;;3.63;;
17340;SDS011;8788;49.930;8.660;2023-04-28T05:30:39;5.10;;;4.03;;
17340;SDS011;8788;49.930;8.660;2023-04-28T05:33:07;8.73;;;4.32;;
17340;SDS011;8788;49.930;8.660;2023-04-28T05:35:36;6.30;;;4.22;;
17340;SDS011;8788;49.930;8.660;2023-04-28T05:38:03;3.40;;;3.08;;
17340;SDS011;8788;49.930;8.660;2023-04-28T05:40:31;8.50;;;4.75;;
17340;SDS011;8788;49.930;8.660;2023-04-28T05:42:59;5.85;;;5.25;;
17340;SDS011;8788;49.930;8.660;2023-04-28T05:45:26;6.55;;;5.00;;
17340;SDS011;8788;49.930;8.660;2023-04-28T05:47:54;9.82;;;5.43;;
17340;SDS011;8788;49.930;8.660;2023-04-28T05:50:21;7.00;;;4.30;;
17340;SDS011;8788;49.930;8.660;2023-04-28T05:52:50;6.97;;;4.45;;
17340;SDS011;8788;49.930;8.660;2023-04-28T05:55:18;6.35;;;3.92;;
17340;SDS011;8788;49.930;8.660;2023-04-28T05:57:45;5.68;;;3.65;;
17340;SDS011;8788;49.930;8.660;2023-04-28T06:00:13;6.35;;;4.00;;
17340;SDS011;8788;49.930;8.660;2023-04-28T06:02:41;4.47;;;4.07;;
17340;SDS011;8788;49.930;8.660;2023-04-28T06:05:08;7.97;;;4.13;;
17340;SDS011;8788;49.930;8.660;2023-04-28T06:07:35;3.72;;;3.30;;
17340;SDS011;8788;49.930;8.660;2023-04-28T06:10:04;5.70;;;4.28;;
17340;SDS011;8788;49.930;8.660;2023-04-28T06:12:32;3.95;;;3.55;;
17340;SDS011;8788;49.930;8.660;2023-04-28T06:14:59;8.43;;;4.13;;
17340;SDS011;8788;49.930;8.660;2023-04-28T06:17:26;3.83;;;3.53;;
17340;SDS011;8788;49.930;8.660;2023-04-28T06:19:55;6.25;;;3.63;;
17340;SDS011;8788;49.930;8.660;2023-04-28T06:22:23;3.67;;;3.38;;
17340;SDS011;8788;49.930;8.660;2023-04-28T06:24:50;4.60;;;4.00;;
17340;SDS011;8788;49.930;8.660;2023-04-28T06:27:24;5.35;;;4.65;;
17340;SDS011;8788;49.930;8.660;2023-04-28T06:29:51;5.82;;;3.63;;
17340;SDS011;8788;49.930;8.660;2023-04-28T06:32:18;3.97;;;3.45;;
17340;SDS011;8788;49.930;8.660;2023-04-28T06:34:46;4.75;;;3.83;;
17340;SDS011;8788;49.930;8.660;2023-04-28T06:37:13;4.70;;;4.07;;
17340;SDS011;8788;49.930;8.660;2023-04-28T06:39:40;4.88;;;3.63;;
17340;SDS011;8788;49.930;8.660;2023-04-28T06:42:07;5.00;;;3.78;;
17340;SDS011;8788;49.930;8.660;2023-04-28T06:44:39;9.10;;;4.40;;
17340;SDS011;8788;49.930;8.660;2023-04-28T06:47:06;4.88;;;3.60;;
17340;SDS011;8788;49.930;8.660;2023-04-28T06:49:34;4.50;;;3.70;;
17340;SDS011;8788;49.930;8.660;2023-04-28T06:52:02;5.82;;;4.30;;
17340;SDS011;8788;49.930;8.660;2023-04-28T06:54:29;7.22;;;4.75;;
17340;SDS011;8788;49.930;8.660;2023-04-28T06:56:56;7.13;;;4.63;;
17340;SDS011;8788;49.930;8.660;2023-04-28T06:59:23;7.07;;;4.85;;
17340;SDS011;8788;49.930;8.660;2023-04-28T07:01:51;4.93;;;4.53;;
17340;SDS011;8788;49.930;8.660;2023-04-28T07:04:19;6.93;;;4.25;;
17340;SDS011;8788;49.930;8.660;2023-04-28T07:06:46;4.75;;;4.30;;
17340;SDS011;8788;49.930;8.660;2023-04-28T07:09:13;8.20;;;4.32;;
17340;SDS011;8788;49.930;8.660;2023-04-28T07:11:42;6.97;;;4.95;;
17340;SDS011;8788;49.930;8.660;2023-04-28T07:14:09;4.95;;;4.40;;
17340;SDS011;8788;49.930;8.660;2023-04-28T07:16:36;4.95;;;4.45;;
17340;SDS011;8788;49.930;8.660;2023-04-28T07:19:04;6.85;;;4.63;;
17340;SDS011;8788;49.930;8.660;2023-04-28T07:21:31;5.97;;;4.80;;
17340;SDS011;8788;49.930;8.660;2023-04-28T07:23:58;5.85;;;5.20;;
17340;SDS011;8788;49.930;8.660;2023-04-28T07:26:25;6.25;;;4.63;;
17340;SDS011;8788;49.930;8.660;2023-04-28T07:28:53;6.38;;;4.97;;
17340;SDS011;8788;49.930;8.660;2023-04-28T07:31:20;6.00;;;4.53;;
17340;SDS011;8788;49.930;8.660;2023-04-28T07:33:47;8.07;;;4.85;;
17340;SDS011;8788;49.930;8.660;2023-04-28T07:36:15;8.65;;;5.65;;
17340;SDS011;8788;49.930;8.660;2023-04-28T07:38:42;5.90;;;5.30;;
17340;SDS011;8788;49.930;8.660;2023-04-28T07:41:10;6.35;;;5.63;;
17340;SDS011;8788;49.930;8.660;2023-04-28T07:43:37;6.80;;;5.13;;
17340;SDS011;8788;49.930;8.660;2023-04-28T07:46:05;6.30;;;5.68;;
17340;SDS011;8788;49.930;8.660;2023-04-28T07:48:32;6.38;;;5.78;;
17340;SDS011;8788;49.930;8.660;2023-04-28T07:50:59;8.52;;;6.55;;
17340;SDS011;8788;49.930;8.660;2023-04-28T07:53:28;8.88;;;7.15;;
17340;SDS011;8788;49.930;8.660;2023-04-28T07:55:55;9.57;;;7.07;;
17340;SDS011;8788;49.930;8.660;2023-04-28T07:58:22;8.65;;;6.57;;
17340;SDS011;8788;49.930;8.660;2023-04-28T08:00:49;6.88;;;6.20;;
17340;SDS011;8788;49.930;8.660;2023-04-28T08:03:16;9.10;;;6.70;;
17340;SDS011;8788;49.930;8.660;2023-04-28T08:05:43;9.00;;;6.90;;
17340;SDS011;8788;49.930;8.660;2023-04-28T08:08:10;9.07;;;7.45;;
17340;SDS011;8788;49.930;8.660;2023-04-28T08:10:39;8.40;;;6.75;;
17340;SDS011;8788;49.930;8.660;2023-04-28T08:13:08;8.82;;;6.13;;
17340;SDS011;8788;49.930;8.660;2023-04-28T08:15:35;7.93;;;6.38;;
17340;SDS011;8788;49.930;8.660;2023-04-28T08:18:02;8.65;;;6.93;;
17340;SDS011;8788;49.930;8.660;2023-04-28T08:20:29;11.00;;;6.43;;
17340;SDS011;8788;49.930;8.660;2023-04-28T08:22:56;9.70;;;6.78;;
17340;SDS011;8788;49.930;8.660;2023-04-28T08:25:24;7.47;;;6.65;;
17340;SDS011;8788;49.930;8.660;2023-04-28T08:27:52;7.97;;;7.18;;
17340;SDS011;8788;49.930;8.660;2023-04-28T08:30:20;9.55;;;7.22;;
17340;SDS011;8788;49.930;8.660;2023-04-28T08:32:47;8.68;;;6.45;;
17340;SDS011;8788;49.930;8.660;2023-04-28T08:35:14;9.52;;;6.50;;
17340;SDS011;8788;49.930;8.660;2023-04-28T08:37:41;8.55;;;6.45;;
17340;SDS011;8788;49.930;8.660;2023-04-28T08:40:09;8.60;;;7.47;;
17340;SDS011;8788;49.930;8.660;2023-04-28T08:42:37;9.13;;;7.55;;
17340;SDS011;8788;49.930;8.660;2023-04-28T08:45:06;11.98;;;8.13;;
17340;SDS011;8788;49.930;8.660;2023-04-28T08:47:38;9.00;;;7.78;;
17340;SDS011;8788;49.930;8.660;2023-04-28T08:50:10;8.27;;;7.45;;
17340;SDS011;8788;49.930;8.660;2023-04-28T08:52:38;13.98;;;8.35;;
17340;SDS011;8788;49.930;8.660;2023-04-28T08:55:06;12.00;;;8.32;;
17340;SDS011;8788;49.930;8.660;2023-04-28T08:57:37;10.40;;;7.82;;
17340;SDS011;8788;49.930;8.660;2023-04-28T09:00:07;8.05;;;7.22;;
17340;SDS011;8788;49.930;8.660;2023-04-28T09:02:34;10.13;;;8.13;;
17340;SDS011;8788;49.930;8.660;2023-04-28T09:05:05;12.45;;;8.73;;
17340;SDS011;8788;49.930;8.660;2023-04-28T09:07:33;9.85;;;7.78;;
17340;SDS011;8788;49.930;8.660;2023-04-28T09:10:14;8.98;;;7.85;;
17340;SDS011;8788;49.930;8.660;2023-04-28T09:12:42;11.77;;;6.85;;
17340;SDS011;8788;49.930;8.660;2023-04-28T09:15:11;12.23;;;8.60;;
17340;SDS011;8788;49.930;8.660;2023-04-28T09:17:52;10.10;;;8.85;;
17340;SDS011;8788;49.930;8.660;2023-04-28T09:20:19;12.85;;;9.93;;
17340;SDS011;8788;49.930;8.660;2023-04-28T09:22:48;17.30;;;10.18;;
17340;SDS011;8788;49.930;8.660;2023-04-28T09:25:16;11.35;;;8.70;;
17340;SDS011;8788;49.930;8.660;2023-04-28T09:27:45;10.32;;;8.75;;
17340;SDS011;8788;49.930;8.660;2023-04-28T09:30:14;14.13;;;9.48;;
17340;SDS011;8788;49.930;8.660;2023-04-28T09:32:41;10.50;;;9.40;;
17340;SDS011;8788;49.930;8.660;2023-04-28T09:35:09;11.40;;;9.50;;
17340;SDS011;8788;49.930;8.660;2023-04-28T09:37:36;12.48;;;9.70;;
17340;SDS011;8788;49.930;8.660;2023-04-28T09:40:04;10.25;;;9.25;;
17340;SDS011;8788;49.930;8.660;2023-04-28T09:42:33;13.02;;;9.95;;
17340;SDS011;8788;49.930;8.660;2023-04-28T09:45:01;12.50;;;10.35;;
17340;SDS011;8788;49.930;8.660;2023-04-28T09:47:31;13.45;;;10.45;;
17340;SDS011;8788;49.930;8.660;2023-04-28T09:50:00;19.10;;;10.07;;
17340;SDS011;8788;49.930;8.660;2023-04-28T09:52:28;12.32;;;9.68;;
17340;SDS011;8788;49.930;8.660;2023-04-28T09:54:55;14.73;;;9.88;;
17340;SDS011;8788;49.930;8.660;2023-04-28T09:57:23;14.43;;;10.02;;
17340;SDS011;8788;49.930;8.660;2023-04-28T09:59:52;13.25;;;10.30;;
17340;SDS011;8788;49.930;8.660;2023-04-28T10:02:19;13.95;;;10.85;;
17340;SDS011;8788;49.930;8.660;2023-04-28T10:04:48;14.80;;;11.80;;
17340;SDS011;8788;49.930;8.660;2023-04-28T10:07:16;13.20;;;11.32;;
17340;SDS011;8788;49.930;8.660;2023-04-28T10:09:45;16.63;;;12.07;;
17340;SDS011;8788;49.930;8.660;2023-04-28T10:12:14;16.15;;;11.95;;
17340;SDS011;8788;49.930;8.660;2023-04-28T10:14:42;18.42;;;13.38;;
17340;SDS011;8788;49.930;8.660;2023-04-28T10:17:10;15.52;;;12.65;;
17340;SDS011;8788;49.930;8.660;2023-04-28T10:19:39;17.70;;;13.00;;
17340;SDS011;8788;49.930;8.660;2023-04-28T10:22:18;16.58;;;13.75;;
17340;SDS011;8788;49.930;8.660;2023-04-28T10:27:50;15.57;;;13.10;;
17340;SDS011;8788;49.930;8.660;2023-04-28T10:30:18;17.10;;;13.18;;
17340;SDS011;8788;49.930;8.660;2023-04-28T10:32:46;20.33;;;14.18;;
17340;SDS011;8788;49.930;8.660;2023-04-28T10:38:09;20.77;;;13.02;;
17340;SDS011;8788;49.930;8.660;2023-04-28T10:40:38;19.92;;;14.18;;
17340;SDS011;8788;49.930;8.660;2023-04-28T10:43:06;16.98;;;14.30;;
17340;SDS011;8788;49.930;8.660;2023-04-28T10:51:29;20.70;;;13.02;;
17340;SDS011;8788;49.930;8.660;2023-04-28T10:54:08;15.80;;;13.32;;
17340;SDS011;8788;49.930;8.660;2023-04-28T11:00:25;18.20;;;13.60;;
17340;SDS011;8788;49.930;8.660;2023-04-28T11:02:53;17.38;;;13.88;;
17340;SDS011;8788;49.930;8.660;2023-04-28T11:05:20;15.45;;;12.45;;
17340;SDS011;8788;49.930;8.660;2023-04-28T11:11:17;16.17;;;12.68;;
17340;SDS011;8788;49.930;8.660;2023-04-28T11:13:50;14.95;;;12.63;;
17340;SDS011;8788;49.930;8.660;2023-04-28T11:16:22;15.10;;;12.93;;
17340;SDS011;8788;49.930;8.660;2023-04-28T11:18:58;16.23;;;14.60;;
17340;SDS011;8788;49.930;8.660;2023-04-28T11:21:29;18.45;;;14.40;;
17340;SDS011;8788;49.930;8.660;2023-04-28T11:23:57;14.52;;;12.93;;
17340;SDS011;8788;49.930;8.660;2023-04-28T11:26:26;15.32;;;13.45;;
17340;SDS011;8788;49.930;8.660;2023-04-28T11:28:55;15.88;;;13.43;;
17340;SDS011;8788;49.930;8.660;2023-04-28T11:31:24;13.40;;;12.00;;
17340;SDS011;8788;49.930;8.660;2023-04-28T11:34:02;14.35;;;12.85;;
17340;SDS011;8788;49.930;8.660;2023-04-28T11:36:31;16.88;;;12.95;;
17340;SDS011;8788;49.930;8.660;2023-04-28T11:39:00;13.90;;;12.40;;
17340;SDS011;8788;49.930;8.660;2023-04-28T11:41:30;15.25;;;12.48;;
17340;SDS011;8788;49.930;8.660;2023-04-28T11:43:58;13.93;;;12.27;;
17340;SDS011;8788;49.930;8.660;2023-04-28T11:46:26;14.55;;;12.70;;
17340;SDS011;8788;49.930;8.660;2023-04-28T11:49:00;14.77;;;13.40;;
17340;SDS011;8788;49.930;8.660;2023-04-28T11:51:29;13.85;;;12.38;;
17340;SDS011;8788;49.930;8.660;2023-04-28T11:53:57;15.02;;;12.85;;
17340;SDS011;8788;49.930;8.660;2023-04-28T11:56:24;13.07;;;11.73;;
17340;SDS011;8788;49.930;8.660;2023-04-28T11:59:02;14.13;;;12.73;;
17340;SDS011;8788;49.930;8.660;2023-04-28T12:01:32;14.30;;;12.93;;
17340;SDS011;8788;49.930;8.660;2023-04-28T12:04:01;14.65;;;13.07;;
17340;SDS011;8788;49.930;8.660;2023-04-28T12:06:29;14.32;;;12.32;;
17340;SDS011;8788;49.930;8.660;2023-04-28T12:08:56;14.65;;;13.23;;
17340;SDS011;8788;49.930;8.660;2023-04-28T12:11:28;15.68;;;12.55;;
17340;SDS011;8788;49.930;8.660;2023-04-28T12:14:03;13.05;;;11.80;;
17340;SDS011;8788;49.930;8.660;2023-04-28T12:16:41;12.75;;;11.43;;
17340;SDS011;8788;49.930;8.660;2023-04-28T12:19:09;15.02;;;11.43;;
17340;SDS011;8788;49.930;8.660;2023-04-28T12:21:37;12.23;;;11.13;;
17340;SDS011;8788;49.930;8.660;2023-04-28T12:24:15;11.82;;;10.73;;
17340;SDS011;8788;49.930;8.660;2023-04-28T12:26:43;12.15;;;10.98;;
17340;SDS011;8788;49.930;8.660;2023-04-28T12:32:04;11.80;;;10.60;;
17340;SDS011;8788;49.930;8.660;2023-04-28T12:34:31;11.60;;;10.55;;
17340;SDS011;8788;49.930;8.660;2023-04-28T12:36:59;10.70;;;9.80;;
17340;SDS011;8788;49.930;8.660;2023-04-28T12:39:29;11.82;;;10.60;;
17340;SDS011;8788;49.930;8.660;2023-04-28T12:41:57;10.05;;;9.05;;
17340;SDS011;8788;49.930;8.660;2023-04-28T12:44:24;8.82;;;8.02;;
17340;SDS011;8788;49.930;8.660;2023-04-28T12:46:54;9.93;;;8.93;;
17340;SDS011;8788;49.930;8.660;2023-04-28T12:49:21;11.77;;;8.23;;
17340;SDS011;8788;49.930;8.660;2023-04-28T12:51:48;9.63;;;8.73;;
17340;SDS011;8788;49.930;8.660;2023-04-28T12:54:15;9.05;;;8.15;;
17340;SDS011;8788;49.930;8.660;2023-04-28T12:56:43;8.63;;;7.82;;
17340;SDS011;8788;49.930;8.660;2023-04-28T12:59:10;8.07;;;6.75;;
17340;SDS011;8788;49.930;8.660;2023-04-28T13:01:37;9.30;;;6.45;;
17340;SDS011;8788;49.930;8.660;2023-04-28T13:04:05;8.55;;;6.38;;
17340;SDS011;8788;49.930;8.660;2023-04-28T13:06:33;6.88;;;6.28;;
17340;SDS011;8788;49.930;8.660;2023-04-28T13:09:00;6.85;;;6.20;;
17340;SDS011;8788;49.930;8.660;2023-04-28T13:11:28;5.22;;;4.75;;
17340;SDS011;8788;49.930;8.660;2023-04-28T13:13:56;5.47;;;4.55;;
17340;SDS011;8788;49.930;8.660;2023-04-28T13:16:23;5.20;;;4.70;;
17340;SDS011;8788;49.930;8.660;2023-04-28T13:18:53;5.28;;;4.78;;
17340;SDS011;8788;49.930;8.660;2023-04-28T13:21:24;5.47;;;4.32;;
17340;SDS011;8788;49.930;8.660;2023-04-28T13:23:53;4.88;;;4.47;;
17340;SDS011;8788;49.930;8.660;2023-04-28T13:26:21;3.65;;;3.35;;
17340;SDS011;8788;49.930;8.660;2023-04-28T13:28:49;4.85;;;4.45;;
17340;SDS011;8788;49.930;8.660;2023-04-28T13:31:17;4.63;;;4.20;;
17340;SDS011;8788;49.930;8.660;2023-04-28T13:33:45;4.47;;;4.07;;
17340;SDS011;8788;49.930;8.660;2023-04-28T13:36:13;3.78;;;3.47;;
17340;SDS011;8788;49.930;8.660;2023-04-28T13:38:42;3.70;;;3.40;;
17340;SDS011;8788;49.930;8.660;2023-04-28T13:41:13;3.70;;;3.38;;
17340;SDS011;8788;49.930;8.660;2023-04-28T13:43:41;3.00;;;2.80;;
17340;SDS011;8788;49.930;8.660;2023-04-28T13:46:09;5.55;;;2.50;;
17340;SDS011;8788;49.930;8.660;2023-04-28T13:48:37;2.15;;;2.05;;
17340;SDS011;8788;49.930;8.660;2023-04-28T13:51:05;2.17;;;1.98;;
17340;SDS011;8788;49.930;8.660;2023-04-28T13:53:34;2.50;;;2.20;;
17340;SDS011;8788;49.930;8.660;2023-04-28T13:56:03;2.03;;;1.90;;
17340;SDS011;8788;49.930;8.660;2023-04-28T13:58:31;2.05;;;1.95;;
17340;SDS011;8788;49.930;8.660;2023-04-28T14:00:59;1.80;;;1.70;;
17340;SDS011;8788;49.930;8.660;2023-04-28T14:03:28;2.88;;;1.85;;
17340;SDS011;8788;49.930;8.660;2023-04-28T14:05:55;1.50;;;1.40;;
17340;SDS011;8788;49.930;8.660;2023-04-28T14:08:23;1.85;;;1.75;;
17340;SDS011;8788;49.930;8.660;2023-04-28T14:10:51;2.20;;;2.10;;
17340;SDS011;8788;49.930;8.660;2023-04-28T14:13:19;2.75;;;2.28;;
17340;SDS011;8788;49.930;8.660;2023-04-28T14:15:46;3.75;;;2.22;;
17340;SDS011;8788;49.930;8.660;2023-04-28T14:18:13;3.00;;;2.80;;
17340;SDS011;8788;49.930;8.660;2023-04-28T14:20:40;2.53;;;2.33;;
17340;SDS011;8788;49.930;8.660;2023-04-28T14:23:08;3.50;;;3.20;;
17340;SDS011;8788;49.930;8.660;2023-04-28T14:25:35;3.75;;;3.40;;
17340;SDS011;8788;49.930;8.660;2023-04-28T14:28:02;3.47;;;3.17;;
17340;SDS011;8788;49.930;8.660;2023-04-28T14:30:31;3.83;;;3.42;;
17340;SDS011;8788;49.930;8.660;2023-04-28T14:32:58;4.60;;;3.70;;
17340;SDS011;8788;49.930;8.660;2023-04-28T14:35:25;2.90;;;2.58;;
17340;SDS011;8788;49.930;8.660;2023-04-28T14:37:54;1.83;;;1.73;;
17340;SDS011;8788;49.930;8.660;2023-04-28T14:40:22;1.42;;;1.33;;
17340;SDS011;8788;49.930;8.660;2023-04-28T14:42:49;2.10;;;1.42;;
17340;SDS011;8788;49.930;8.660;2023-04-28T14:45:16;1.50;;;1.40;;
17340;SDS011;8788;49.930;8.660;2023-04-28T14:47:45;1.30;;;1.20;;
17340;SDS011;8788;49.930;8.660;2023-04-28T14:50:12;2.25;;;1.60;;
17340;SDS011;8788;49.930;8.660;2023-04-28T14:52:40;2.65;;;1.48;;
17340;SDS011;8788;49.930;8.660;2023-04-28T14:55:07;3.25;;;1.50;;
17340;SDS011;8788;49.930;8.660;2023-04-28T14:57:35;1.95;;;1.50;;
17340;SDS011;8788;49.930;8.660;2023-04-28T15:00:02;1.63;;;1.52;;
17340;SDS011;8788;49.930;8.660;2023-04-28T15:02:31;1.95;;;1.52;;
17340;SDS011;8788;49.930;8.660;2023-04-28T15:05:00;2.50;;;1.55;;
17340;SDS011;8788;49.930;8.660;2023-04-28T15:07:27;1.20;;;1.10;;
17340;SDS011;8788;49.930;8.660;2023-04-28T15:09:55;1.60;;;1.50;;
17340;SDS011;8788;49.930;8.660;2023-04-28T15:12:23;1.33;;;1.17;;
17340;SDS011;8788;49.930;8.660;2023-04-28T15:14:51;1.55;;;1.27;;
17340;SDS011;8788;49.930;8.660;2023-04-28T15:17:18;1.83;;;1.42;;
17340;SDS011;8788;49.930;8.660;2023-04-28T15:19:47;0.70;;;0.70;;
17340;SDS011;8788;49.930;8.660;2023-04-28T15:22:16;0.90;;;0.90;;
17340;SDS011;8788;49.930;8.660;2023-04-28T15:24:43;1.00;;;0.90;;
17340;SDS011;8788;49.930;8.660;2023-04-28T15:27:10;1.45;;;1.35;;
17340;SDS011;8788;49.930;8.660;2023-04-28T15:29:37;0.93;;;0.90;;